sensor_id;sensor_type;location;lat;lon;timestamp;pressure;altitude;pressure_sealevel;temperature;humidity
29371;BME280;16357;52.188;7.838;2023-05-10T00:00:54;99983.75;;;18.80;61.81
29371;BME280;16357;52.188;7.838;2023-05-10T00:03:21;99976.66;;;18.79;61.85
29371;BME280;16357;52.188;7.838;2023-05-10T00:05:48;99980.66;;;18.77;62.13
29371;BME280;16357;52.188;7.838;2023-05-10T00:08:14;99981.91;;;18.74;62.12
29371;BME280;16357;52.188;7.838;2023-05-10T00:10:41;99977.53;;;18.73;62.13
29371;BME280;16357;52.188;7.838;2023-05-10T00:13:07;99981.09;;;18.74;62.10
29371;BME280;16357;52.188;7.838;2023-05-10T00:15:34;99971.50;;;18.71;61.90
29371;BME280;16357;52.188;7.838;2023-05-10T00:18:00;99970.88;;;18.69;62.21
29371;BME280;16357;52.188;7.838;2023-05-10T00:20:27;99967.34;;;18.69;62.29
29371;BME280;16357;52.188;7.838;2023-05-10T00:22:53;99968.19;;;18.69;62.31
29371;BME280;16357;52.188;7.838;2023-05-10T00:25:20;99970.06;;;18.69;62.29
29371;BME280;16357;52.188;7.838;2023-05-10T00:27:47;99962.16;;;18.67;62.35
29371;BME280;16357;52.188;7.838;2023-05-10T00:30:14;99955.06;;;18.66;62.22
29371;BME280;16357;52.188;7.838;2023-05-10T00:32:41;99956.13;;;18.65;62.61
29371;BME280;16357;52.188;7.838;2023-05-10T00:35:08;99954.44;;;18.64;62.70
29371;BME280;16357;52.188;7.838;2023-05-10T00:37:34;99958.22;;;18.63;62.68
29371;BME280;16357;52.188;7.838;2023-05-10T00:40:01;99954.69;;;18.62;62.80
29371;BME280;16357;52.188;7.838;2023-05-10T00:42:27;99959.31;;;18.62;62.47
29371;BME280;16357;52.188;7.838;2023-05-10T00:44:54;99958.69;;;18.60;62.58
29371;BME280;16357;52.188;7.838;2023-05-10T00:47:20;99958.91;;;18.58;62.43
29371;BME280;16357;52.188;7.838;2023-05-10T00:49:48;99960.19;;;18.56;62.59
29371;BME280;16357;52.188;7.838;2023-05-10T00:52:14;99961.25;;;18.55;62.52
29371;BME280;16357;52.188;7.838;2023-05-10T00:54:41;99961.72;;;18.52;62.78
29371;BME280;16357;52.188;7.838;2023-05-10T00:57:08;99960.91;;;18.51;62.82
29371;BME280;16357;52.188;7.838;2023-05-10T00:59:34;99964.91;;;18.49;62.79
29371;BME280;16357;52.188;7.838;2023-05-10T01:02:01;99962.41;;;18.47;62.50
29371;BME280;16357;52.188;7.838;2023-05-10T01:04:28;99952.00;;;18.44;62.35
29371;BME280;16357;52.188;7.838;2023-05-10T01:06:55;99968.75;;;18.41;62.46
29371;BME280;16357;52.188;7.838;2023-05-10T01:09:21;99962.91;;;18.37;62.45
29371;BME280;16357;52.188;7.838;2023-05-10T01:11:49;99958.19;;;18.33;62.36
29371;BME280;16357;52.188;7.838;2023-05-10T01:14:18;99957.78;;;18.29;62.36
29371;BME280;16357;52.188;7.838;2023-05-10T01:16:47;99963.69;;;18.26;62.29
29371;BME280;16357;52.188;7.838;2023-05-10T01:19:26;99965.78;;;18.24;62.36
29371;BME280;16357;52.188;7.838;2023-05-10T01:35:31;99973.41;;;18.15;62.92
29371;BME280;16357;52.188;7.838;2023-05-10T01:38:15;99968.81;;;18.16;63.25
29371;BME280;16357;52.188;7.838;2023-05-10T01:43:23;99974.84;;;18.18;63.37
29371;BME280;16357;52.188;7.838;2023-05-10T01:48:19;99969.41;;;18.18;63.58
29371;BME280;16357;52.188;7.838;2023-05-10T01:50:48;99965.63;;;18.19;63.52
29371;BME280;16357;52.188;7.838;2023-05-10T01:53:18;99978.16;;;18.20;63.00
29371;BME280;16357;52.188;7.838;2023-05-10T01:55:48;99972.97;;;18.18;63.09
29371;BME280;16357;52.188;7.838;2023-05-10T01:58:18;99966.69;;;18.18;63.17
29371;BME280;16357;52.188;7.838;2023-05-10T02:00:47;99976.94;;;18.16;63.16
29371;BME280;16357;52.188;7.838;2023-05-10T02:03:16;99976.34;;;18.14;63.25
29371;BME280;16357;52.188;7.838;2023-05-10T02:05:45;99970.91;;;18.14;63.25
29371;BME280;16357;52.188;7.838;2023-05-10T02:08:16;99976.78;;;18.11;63.32
29371;BME280;16357;52.188;7.838;2023-05-10T02:10:45;99980.56;;;18.10;63.09
29371;BME280;16357;52.188;7.838;2023-05-10T02:13:12;99977.25;;;18.08;63.26
29371;BME280;16357;52.188;7.838;2023-05-10T02:15:41;99980.19;;;18.06;63.10
29371;BME280;16357;52.188;7.838;2023-05-10T02:18:09;99984.19;;;18.04;63.03
29371;BME280;16357;52.188;7.838;2023-05-10T02:20:37;99989.47;;;17.98;63.26
29371;BME280;16357;52.188;7.838;2023-05-10T02:23:05;99995.75;;;17.92;63.43
29371;BME280;16357;52.188;7.838;2023-05-10T02:25:33;99999.38;;;17.86;62.93
29371;BME280;16357;52.188;7.838;2023-05-10T02:28:02;99998.81;;;17.77;62.41
29371;BME280;16357;52.188;7.838;2023-05-10T02:30:31;100001.38;;;17.66;62.02
29371;BME280;16357;52.188;7.838;2023-05-10T02:32:59;100011.97;;;17.49;62.27
29371;BME280;16357;52.188;7.838;2023-05-10T02:35:27;100002.47;;;17.33;62.08
29371;BME280;16357;52.188;7.838;2023-05-10T02:37:54;99999.69;;;17.15;63.03
29371;BME280;16357;52.188;7.838;2023-05-10T02:40:22;100001.22;;;16.97;63.18
29371;BME280;16357;52.188;7.838;2023-05-10T02:42:55;100017.75;;;16.82;63.66
29371;BME280;16357;52.188;7.838;2023-05-10T02:45:26;100015.50;;;16.66;64.10
29371;BME280;16357;52.188;7.838;2023-05-10T02:47:54;100012.00;;;16.52;65.17
29371;BME280;16357;52.188;7.838;2023-05-10T02:50:22;100018.91;;;16.41;65.15
29371;BME280;16357;52.188;7.838;2023-05-10T02:52:54;100018.53;;;16.31;65.41
29371;BME280;16357;52.188;7.838;2023-05-10T02:55:25;100019.56;;;16.23;65.56
29371;BME280;16357;52.188;7.838;2023-05-10T02:58:01;100017.91;;;16.16;66.25
29371;BME280;16357;52.188;7.838;2023-05-10T03:00:28;100018.78;;;16.10;66.38
29371;BME280;16357;52.188;7.838;2023-05-10T03:02:55;100023.16;;;16.04;66.77
29371;BME280;16357;52.188;7.838;2023-05-10T03:05:22;100012.13;;;15.99;66.68
29371;BME280;16357;52.188;7.838;2023-05-10T03:07:49;100018.78;;;15.96;66.81
29371;BME280;16357;52.188;7.838;2023-05-10T03:10:17;100017.53;;;15.92;66.94
29371;BME280;16357;52.188;7.838;2023-05-10T03:16:15;100021.72;;;15.88;67.28
29371;BME280;16357;52.188;7.838;2023-05-10T03:19:26;100021.91;;;15.87;67.23
29371;BME280;16357;52.188;7.838;2023-05-10T03:21:59;100028.38;;;15.86;67.23
29371;BME280;16357;52.188;7.838;2023-05-10T03:24:27;100023.16;;;15.84;66.94
29371;BME280;16357;52.188;7.838;2023-05-10T03:26:55;100028.78;;;15.83;67.37
29371;BME280;16357;52.188;7.838;2023-05-10T03:29:25;100030.63;;;15.82;67.15
29371;BME280;16357;52.188;7.838;2023-05-10T03:31:52;100032.75;;;15.80;67.61
29371;BME280;16357;52.188;7.838;2023-05-10T03:34:23;100030.88;;;15.80;67.14
29371;BME280;16357;52.188;7.838;2023-05-10T03:36:50;100038.34;;;15.78;67.34
29371;BME280;16357;52.188;7.838;2023-05-10T03:39:16;100042.09;;;15.77;67.68
29371;BME280;16357;52.188;7.838;2023-05-10T03:41:43;100043.94;;;15.77;67.77
29371;BME280;16357;52.188;7.838;2023-05-10T03:44:09;100051.25;;;15.76;67.31
29371;BME280;16357;52.188;7.838;2023-05-10T03:46:36;100052.28;;;15.75;67.72
29371;BME280;16357;52.188;7.838;2023-05-10T03:49:02;100047.91;;;15.74;67.82
29371;BME280;16357;52.188;7.838;2023-05-10T03:51:29;100040.00;;;15.73;67.96
29371;BME280;16357;52.188;7.838;2023-05-10T03:53:57;100044.59;;;15.72;67.71
29371;BME280;16357;52.188;7.838;2023-05-10T03:56:23;100053.31;;;15.74;67.81
29371;BME280;16357;52.188;7.838;2023-05-10T03:58:50;100057.69;;;15.75;67.86
29371;BME280;16357;52.188;7.838;2023-05-10T04:01:16;100063.94;;;15.76;68.07
29371;BME280;16357;52.188;7.838;2023-05-10T04:03:43;100059.34;;;15.76;67.97
29371;BME280;16357;52.188;7.838;2023-05-10T04:06:09;100067.47;;;15.76;67.96
29371;BME280;16357;52.188;7.838;2023-05-10T04:08:37;100062.06;;;15.76;68.11
29371;BME280;16357;52.188;7.838;2023-05-10T04:11:08;100069.16;;;15.77;67.88
29371;BME280;16357;52.188;7.838;2023-05-10T04:13:35;100070.81;;;15.78;67.70
29371;BME280;16357;52.188;7.838;2023-05-10T04:16:02;100075.38;;;15.78;67.88
29371;BME280;16357;52.188;7.838;2023-05-10T04:18:29;100073.50;;;15.78;67.80
29371;BME280;16357;52.188;7.838;2023-05-10T04:20:55;100073.50;;;15.78;67.63
29371;BME280;16357;52.188;7.838;2023-05-10T04:23:22;100083.28;;;15.79;67.71
29371;BME280;16357;52.188;7.838;2023-05-10T04:25:48;100083.28;;;15.79;67.98
29371;BME280;16357;52.188;7.838;2023-05-10T04:28:14;100086.84;;;15.80;67.78
29371;BME280;16357;52.188;7.838;2023-05-10T04:30:41;100087.66;;;15.80;68.08
29371;BME280;16357;52.188;7.838;2023-05-10T04:33:07;100089.31;;;15.82;67.92
29371;BME280;16357;52.188;7.838;2023-05-10T04:35:34;100093.69;;;15.83;67.90
29371;BME280;16357;52.188;7.838;2023-05-10T04:38:01;100089.13;;;15.83;68.20
29371;BME280;16357;52.188;7.838;2023-05-10T04:40:27;100095.16;;;15.85;67.77
29371;BME280;16357;52.188;7.838;2023-05-10T04:42:54;100098.69;;;15.86;67.68
29371;BME280;16357;52.188;7.838;2023-05-10T04:45:20;100089.53;;;15.87;67.76
29371;BME280;16357;52.188;7.838;2023-05-10T04:47:47;100091.22;;;15.88;67.40
29371;BME280;16357;52.188;7.838;2023-05-10T04:50:13;100100.16;;;15.88;67.59
29371;BME280;16357;52.188;7.838;2023-05-10T04:52:40;100096.63;;;15.88;67.79
29371;BME280;16357;52.188;7.838;2023-05-10T04:55:07;100096.63;;;15.88;67.90
29371;BME280;16357;52.188;7.838;2023-05-10T04:57:35;100092.88;;;15.89;68.01
29371;BME280;16357;52.188;7.838;2023-05-10T05:00:02;100097.84;;;15.92;67.85
29371;BME280;16357;52.188;7.838;2023-05-10T05:02:29;100104.91;;;15.93;67.82
29371;BME280;16357;52.188;7.838;2023-05-10T05:04:56;100103.91;;;15.94;67.60
29371;BME280;16357;52.188;7.838;2023-05-10T05:07:23;100109.94;;;15.96;68.11
29371;BME280;16357;52.188;7.838;2023-05-10T05:09:50;100115.94;;;15.98;67.72
29371;BME280;16357;52.188;7.838;2023-05-10T05:12:16;100117.63;;;15.99;67.57
29371;BME280;16357;52.188;7.838;2023-05-10T05:14:43;100126.38;;;16.01;67.83
29371;BME280;16357;52.188;7.838;2023-05-10T05:17:09;100117.22;;;16.02;67.89
29371;BME280;16357;52.188;7.838;2023-05-10T05:19:36;100123.25;;;16.04;67.71
29371;BME280;16357;52.188;7.838;2023-05-10T05:22:03;100126.59;;;16.06;67.58
29371;BME280;16357;52.188;7.838;2023-05-10T05:24:34;100130.53;;;16.10;67.30
29371;BME280;16357;52.188;7.838;2023-05-10T05:27:01;100131.38;;;16.11;67.45
29371;BME280;16357;52.188;7.838;2023-05-10T05:29:27;100131.19;;;16.12;67.62
29371;BME280;16357;52.188;7.838;2023-05-10T05:31:54;100134.50;;;16.14;67.61
29371;BME280;16357;52.188;7.838;2023-05-10T05:34:21;100137.81;;;16.16;67.55
29371;BME280;16357;52.188;7.838;2023-05-10T05:36:48;100141.97;;;16.19;67.89
29371;BME280;16357;52.188;7.838;2023-05-10T05:39:14;100145.31;;;16.21;67.72
29371;BME280;16357;52.188;7.838;2023-05-10T05:41:41;100146.59;;;16.25;67.57
29371;BME280;16357;52.188;7.838;2023-05-10T05:44:07;100142.63;;;16.28;67.36
29371;BME280;16357;52.188;7.838;2023-05-10T05:46:34;100150.34;;;16.31;67.74
29371;BME280;16357;52.188;7.838;2023-05-10T05:49:00;100149.09;;;16.33;67.66
29371;BME280;16357;52.188;7.838;2023-05-10T05:51:27;100147.84;;;16.36;67.39
29371;BME280;16357;52.188;7.838;2023-05-10T05:53:54;100153.88;;;16.38;67.28
29371;BME280;16357;52.188;7.838;2023-05-10T05:56:20;100156.16;;;16.41;67.16
29371;BME280;16357;52.188;7.838;2023-05-10T05:58:51;100164.91;;;16.43;66.90
29371;BME280;16357;52.188;7.838;2023-05-10T06:01:17;100162.81;;;16.45;66.98
29371;BME280;16357;52.188;7.838;2023-05-10T06:03:44;100168.84;;;16.47;67.03
29371;BME280;16357;52.188;7.838;2023-05-10T06:06:10;100156.97;;;16.48;66.95
29371;BME280;16357;52.188;7.838;2023-05-10T06:08:37;100175.53;;;16.51;67.13
29371;BME280;16357;52.188;7.838;2023-05-10T06:11:03;100169.88;;;16.53;67.45
29371;BME280;16357;52.188;7.838;2023-05-10T06:13:30;100164.91;;;16.56;66.95
29371;BME280;16357;52.188;7.838;2023-05-10T06:15:59;100167.19;;;16.59;67.03
29371;BME280;16357;52.188;7.838;2023-05-10T06:18:25;100163.22;;;16.62;67.11
29371;BME280;16357;52.188;7.838;2023-05-10T06:20:51;100166.34;;;16.65;67.05
29371;BME280;16357;52.188;7.838;2023-05-10T06:23:18;100166.13;;;16.67;66.50
29371;BME280;16357;52.188;7.838;2023-05-10T06:25:44;100174.66;;;16.71;66.50
29371;BME280;16357;52.188;7.838;2023-05-10T06:28:11;100171.53;;;16.74;66.83
29371;BME280;16357;52.188;7.838;2023-05-10T06:30:37;100179.22;;;16.77;66.93
29371;BME280;16357;52.188;7.838;2023-05-10T06:33:04;100182.41;;;16.80;66.83
29371;BME280;16357;52.188;7.838;2023-05-10T06:35:31;100178.44;;;16.83;66.51
29371;BME280;16357;52.188;7.838;2023-05-10T06:37:59;100180.72;;;16.86;66.80
29371;BME280;16357;52.188;7.838;2023-05-10T06:40:26;100185.72;;;16.89;66.94
29371;BME280;16357;52.188;7.838;2023-05-10T06:42:52;100186.09;;;16.93;67.02
29371;BME280;16357;52.188;7.838;2023-05-10T06:45:19;100191.97;;;16.96;67.00
29371;BME280;16357;52.188;7.838;2023-05-10T06:47:45;100199.44;;;17.01;67.12
29371;BME280;16357;52.188;7.838;2023-05-10T06:50:12;100200.47;;;17.06;67.26
29371;BME280;16357;52.188;7.838;2023-05-10T06:52:39;100202.53;;;17.11;67.27
29371;BME280;16357;52.188;7.838;2023-05-10T06:55:06;100202.28;;;17.19;67.18
29371;BME280;16357;52.188;7.838;2023-05-10T06:57:33;100202.28;;;17.26;66.38
29371;BME280;16357;52.188;7.838;2023-05-10T06:59:59;100198.72;;;17.32;66.67
29371;BME280;16357;52.188;7.838;2023-05-10T07:02:26;100192.47;;;17.38;66.68
29371;BME280;16357;52.188;7.838;2023-05-10T07:04:53;100197.00;;;17.44;66.57
29371;BME280;16357;52.188;7.838;2023-05-10T07:07:19;100198.84;;;17.50;66.54
29371;BME280;16357;52.188;7.838;2023-05-10T07:09:46;100200.72;;;17.57;66.09
29371;BME280;16357;52.188;7.838;2023-05-10T07:12:12;100200.69;;;17.63;66.51
29371;BME280;16357;52.188;7.838;2023-05-10T07:14:41;100200.03;;;17.68;65.63
29371;BME280;16357;52.188;7.838;2023-05-10T07:17:07;100201.25;;;17.72;65.39
29371;BME280;16357;52.188;7.838;2023-05-10T07:19:33;100196.25;;;17.75;65.23
29371;BME280;16357;52.188;7.838;2023-05-10T07:22:00;100200.59;;;17.76;65.14
29371;BME280;16357;52.188;7.838;2023-05-10T07:24:27;100196.66;;;17.79;65.25
29371;BME280;16357;52.188;7.838;2023-05-10T07:26:53;100208.13;;;17.81;65.81
29371;BME280;16357;52.188;7.838;2023-05-10T07:29:20;100206.88;;;17.84;65.37
29371;BME280;16357;52.188;7.838;2023-05-10T07:31:46;100220.00;;;17.87;65.30
29371;BME280;16357;52.188;7.838;2023-05-10T07:34:13;100212.47;;;17.89;65.33
29371;BME280;16357;52.188;7.838;2023-05-10T07:36:39;100221.84;;;17.93;65.40
29371;BME280;16357;52.188;7.838;2023-05-10T07:39:05;100225.78;;;17.97;64.94
29371;BME280;16357;52.188;7.838;2023-05-10T07:41:32;100227.88;;;18.02;65.66
29371;BME280;16357;52.188;7.838;2023-05-10T07:44:00;100224.25;;;18.08;64.94
29371;BME280;16357;52.188;7.838;2023-05-10T07:46:27;100216.91;;;18.15;65.20
29371;BME280;16357;52.188;7.838;2023-05-10T07:48:54;100217.09;;;18.20;64.77
29371;BME280;16357;52.188;7.838;2023-05-10T07:51:21;100215.16;;;18.27;65.04
29371;BME280;16357;52.188;7.838;2023-05-10T07:53:47;100223.06;;;18.35;65.04
29371;BME280;16357;52.188;7.838;2023-05-10T07:56:22;100227.97;;;18.45;64.45
29371;BME280;16357;52.188;7.838;2023-05-10T07:58:48;100233.38;;;18.52;64.58
29371;BME280;16357;52.188;7.838;2023-05-10T08:01:15;100235.81;;;18.60;63.61
29371;BME280;16357;52.188;7.838;2023-05-10T08:03:41;100234.06;;;18.65;63.26
29371;BME280;16357;52.188;7.838;2023-05-10T08:06:08;100234.44;;;18.69;63.25
29371;BME280;16357;52.188;7.838;2023-05-10T08:08:35;100240.28;;;18.73;62.84
29371;BME280;16357;52.188;7.838;2023-05-10T08:11:01;100236.50;;;18.74;62.48
29371;BME280;16357;52.188;7.838;2023-05-10T08:13:28;100241.78;;;18.75;62.82
29371;BME280;16357;52.188;7.838;2023-05-10T08:15:54;100236.94;;;18.77;63.21
29371;BME280;16357;52.188;7.838;2023-05-10T08:18:20;100238.16;;;18.81;63.23
29371;BME280;16357;52.188;7.838;2023-05-10T08:20:47;100245.41;;;18.88;62.72
29371;BME280;16357;52.188;7.838;2023-05-10T08:23:14;100242.63;;;18.94;62.39
29371;BME280;16357;52.188;7.838;2023-05-10T08:25:41;100242.81;;;18.99;62.54
29371;BME280;16357;52.188;7.838;2023-05-10T08:28:07;100242.72;;;19.06;62.16
29371;BME280;16357;52.188;7.838;2023-05-10T08:30:36;100233.91;;;19.11;62.77
29371;BME280;16357;52.188;7.838;2023-05-10T08:33:02;100244.09;;;19.15;61.81
29371;BME280;16357;52.188;7.838;2023-05-10T08:35:29;100251.59;;;19.20;61.75
29371;BME280;16357;52.188;7.838;2023-05-10T08:37:55;100253.63;;;19.24;61.86
29371;BME280;16357;52.188;7.838;2023-05-10T08:40:24;100252.13;;;19.28;61.52
29371;BME280;16357;52.188;7.838;2023-05-10T08:43:05;100258.78;;;19.33;61.24
29371;BME280;16357;52.188;7.838;2023-05-10T08:45:36;100264.81;;;19.35;61.13
29371;BME280;16357;52.188;7.838;2023-05-10T08:48:09;100265.41;;;19.37;60.59
29371;BME280;16357;52.188;7.838;2023-05-10T08:50:37;100264.34;;;19.38;60.66
29371;BME280;16357;52.188;7.838;2023-05-10T08:53:11;100262.03;;;19.41;60.93
29371;BME280;16357;52.188;7.838;2023-05-10T08:56:48;100265.50;;;19.48;60.83
29371;BME280;16357;52.188;7.838;2023-05-10T09:03:10;100266.19;;;19.62;60.29
29371;BME280;16357;52.188;7.838;2023-05-10T09:05:52;100266.56;;;19.66;59.59
29371;BME280;16357;52.188;7.838;2023-05-10T09:08:37;100271.56;;;19.69;60.12
29371;BME280;16357;52.188;7.838;2023-05-10T09:11:42;100280.13;;;19.72;59.44
29371;BME280;16357;52.188;7.838;2023-05-10T09:14:44;100276.69;;;19.77;59.61
29371;BME280;16357;52.188;7.838;2023-05-10T09:17:49;100280.53;;;19.88;59.63
29371;BME280;16357;52.188;7.838;2023-05-10T09:20:33;100285.69;;;19.96;58.90
29371;BME280;16357;52.188;7.838;2023-05-10T09:23:42;100284.53;;;20.04;58.41
29371;BME280;16357;52.188;7.838;2023-05-10T09:26:33;100289.28;;;20.08;58.53
29371;BME280;16357;52.188;7.838;2023-05-10T09:32:57;100300.38;;;20.25;58.61
29371;BME280;16357;52.188;7.838;2023-05-10T09:35:55;100303.81;;;20.32;58.53
29371;BME280;16357;52.188;7.838;2023-05-10T09:42:34;100309.31;;;20.44;57.55
29371;BME280;16357;52.188;7.838;2023-05-10T09:46:08;100306.13;;;20.47;56.98
29371;BME280;16357;52.188;7.838;2023-05-10T09:48:43;100308.38;;;20.50;56.94
29371;BME280;16357;52.188;7.838;2023-05-10T09:51:10;100295.59;;;20.51;57.09
29371;BME280;16357;52.188;7.838;2023-05-10T09:53:37;100307.72;;;20.55;57.10
29371;BME280;16357;52.188;7.838;2023-05-10T09:56:17;100305.97;;;20.60;57.14
29371;BME280;16357;52.188;7.838;2023-05-10T09:59:42;100299.13;;;20.70;57.06
29371;BME280;16357;52.188;7.838;2023-05-10T10:02:14;100305.28;;;20.77;57.26
29371;BME280;16357;52.188;7.838;2023-05-10T10:05:00;100304.81;;;20.80;55.76
29371;BME280;16357;52.188;7.838;2023-05-10T10:07:38;100310.03;;;20.81;55.46
29371;BME280;16357;52.188;7.838;2023-05-10T10:10:06;100309.22;;;20.81;55.57
29371;BME280;16357;52.188;7.838;2023-05-10T10:12:52;100315.84;;;20.85;56.00
29371;BME280;16357;52.188;7.838;2023-05-10T10:15:20;100307.78;;;20.90;55.92
29371;BME280;16357;52.188;7.838;2023-05-10T10:17:48;100313.28;;;21.02;55.96
29371;BME280;16357;52.188;7.838;2023-05-10T10:20:16;100308.41;;;21.16;55.69
29371;BME280;16357;52.188;7.838;2023-05-10T10:22:44;100306.84;;;21.32;55.79
29371;BME280;16357;52.188;7.838;2023-05-10T10:25:12;100306.75;;;21.50;55.99
29371;BME280;16357;52.188;7.838;2023-05-10T10:27:55;100308.25;;;21.69;55.34
29371;BME280;16357;52.188;7.838;2023-05-10T10:36:48;100309.44;;;22.26;52.64
29371;BME280;16357;52.188;7.838;2023-05-10T10:39:14;100309.88;;;22.34;51.40
29371;BME280;16357;52.188;7.838;2023-05-10T10:42:07;100302.34;;;22.42;51.31
29371;BME280;16357;52.188;7.838;2023-05-10T10:45:24;100305.19;;;22.47;51.86
29371;BME280;16357;52.188;7.838;2023-05-10T10:48:24;100303.13;;;22.54;52.19
29371;BME280;16357;52.188;7.838;2023-05-10T10:50:56;100303.19;;;22.59;51.86
29371;BME280;16357;52.188;7.838;2023-05-10T10:53:32;100307.78;;;22.70;50.90
29371;BME280;16357;52.188;7.838;2023-05-10T10:56:05;100307.97;;;22.81;50.74
29371;BME280;16357;52.188;7.838;2023-05-10T10:58:34;100300.66;;;22.86;50.45
29371;BME280;16357;52.188;7.838;2023-05-10T11:01:17;100303.81;;;22.95;49.86
29371;BME280;16357;52.188;7.838;2023-05-10T11:06:30;100310.56;;;23.04;50.37
29371;BME280;16357;52.188;7.838;2023-05-10T11:08:58;100308.97;;;23.08;49.92
29371;BME280;16357;52.188;7.838;2023-05-10T11:11:24;100314.53;;;23.13;49.51
29371;BME280;16357;52.188;7.838;2023-05-10T11:13:51;100311.88;;;23.18;49.66
29371;BME280;16357;52.188;7.838;2023-05-10T11:16:20;100307.63;;;23.28;49.99
29371;BME280;16357;52.188;7.838;2023-05-10T11:21:23;100305.16;;;23.48;48.84
29371;BME280;16357;52.188;7.838;2023-05-10T11:23:54;100313.28;;;23.60;48.17
29371;BME280;16357;52.188;7.838;2023-05-10T11:26:24;100307.38;;;23.68;47.80
29371;BME280;16357;52.188;7.838;2023-05-10T11:28:53;100308.88;;;23.76;47.63
29371;BME280;16357;52.188;7.838;2023-05-10T11:31:23;100307.25;;;23.80;46.83
29371;BME280;16357;52.188;7.838;2023-05-10T11:33:52;100313.31;;;23.82;47.13
29371;BME280;16357;52.188;7.838;2023-05-10T11:36:26;100314.13;;;23.82;46.05
29371;BME280;16357;52.188;7.838;2023-05-10T11:38:54;100312.19;;;23.78;45.91
29371;BME280;16357;52.188;7.838;2023-05-10T11:41:22;100312.13;;;23.73;45.81
29371;BME280;16357;52.188;7.838;2023-05-10T11:43:50;100317.50;;;23.67;46.08
29371;BME280;16357;52.188;7.838;2023-05-10T11:46:20;100333.28;;;23.60;45.93
29371;BME280;16357;52.188;7.838;2023-05-10T11:48:49;100323.59;;;23.53;44.75
29371;BME280;16357;52.188;7.838;2023-05-10T11:51:21;100319.06;;;23.41;45.71
29371;BME280;16357;52.188;7.838;2023-05-10T11:53:49;100338.31;;;23.30;45.94
29371;BME280;16357;52.188;7.838;2023-05-10T11:56:16;100323.13;;;23.22;45.56
29371;BME280;16357;52.188;7.838;2023-05-10T11:58:43;100334.59;;;23.19;46.50
29371;BME280;16357;52.188;7.838;2023-05-10T12:01:09;100329.09;;;23.19;45.87
29371;BME280;16357;52.188;7.838;2023-05-10T12:03:37;100336.00;;;23.21;45.89
29371;BME280;16357;52.188;7.838;2023-05-10T12:06:04;100333.84;;;23.23;45.75
29371;BME280;16357;52.188;7.838;2023-05-10T12:08:30;100327.84;;;23.27;46.42
29371;BME280;16357;52.188;7.838;2023-05-10T12:11:05;100339.41;;;23.29;45.51
29371;BME280;16357;52.188;7.838;2023-05-10T12:13:31;100335.47;;;23.25;45.55
29371;BME280;16357;52.188;7.838;2023-05-10T12:15:58;100348.25;;;23.19;46.48
29371;BME280;16357;52.188;7.838;2023-05-10T12:18:25;100344.63;;;23.13;46.60
29371;BME280;16357;52.188;7.838;2023-05-10T12:20:52;100335.50;;;23.08;46.88
29371;BME280;16357;52.188;7.838;2023-05-10T12:23:22;100342.31;;;23.05;47.02
29371;BME280;16357;52.188;7.838;2023-05-10T12:25:48;100336.84;;;23.05;46.23
29371;BME280;16357;52.188;7.838;2023-05-10T12:28:18;100342.38;;;23.10;47.16
29371;BME280;16357;52.188;7.838;2023-05-10T12:30:45;100342.47;;;23.15;46.38
29371;BME280;16357;52.188;7.838;2023-05-10T12:33:13;100347.53;;;23.23;46.33
29371;BME280;16357;52.188;7.838;2023-05-10T12:35:52;100347.91;;;23.32;46.27
29371;BME280;16357;52.188;7.838;2023-05-10T12:38:45;100345.63;;;23.41;46.24
29371;BME280;16357;52.188;7.838;2023-05-10T12:41:15;100347.84;;;23.44;45.26
29371;BME280;16357;52.188;7.838;2023-05-10T12:43:43;100346.44;;;23.41;44.24
29371;BME280;16357;52.188;7.838;2023-05-10T12:46:12;100348.00;;;23.37;44.28
29371;BME280;16357;52.188;7.838;2023-05-10T12:48:39;100346.28;;;23.31;44.79
29371;BME280;16357;52.188;7.838;2023-05-10T12:51:07;100364.78;;;23.24;44.79
29371;BME280;16357;52.188;7.838;2023-05-10T12:53:39;100361.72;;;23.20;45.67
29371;BME280;16357;52.188;7.838;2023-05-10T12:56:09;100363.88;;;23.18;45.64
29371;BME280;16357;52.188;7.838;2023-05-10T12:58:35;100361.38;;;23.17;45.51
29371;BME280;16357;52.188;7.838;2023-05-10T13:01:02;100369.34;;;23.18;46.01
29371;BME280;16357;52.188;7.838;2023-05-10T13:03:29;100364.97;;;23.17;45.79
29371;BME280;16357;52.188;7.838;2023-05-10T13:05:55;100363.28;;;23.16;45.57
29371;BME280;16357;52.188;7.838;2023-05-10T13:08:22;100367.69;;;23.17;45.94
29371;BME280;16357;52.188;7.838;2023-05-10T13:10:49;100365.50;;;23.19;46.23
29371;BME280;16357;52.188;7.838;2023-05-10T13:13:15;100353.50;;;23.20;45.67
29371;BME280;16357;52.188;7.838;2023-05-10T13:15:41;100370.97;;;23.19;45.70
29371;BME280;16357;52.188;7.838;2023-05-10T13:18:08;100368.50;;;23.18;45.41
29371;BME280;16357;52.188;7.838;2023-05-10T13:20:34;100380.47;;;23.12;44.74
29371;BME280;16357;52.188;7.838;2023-05-10T13:23:01;100380.63;;;23.05;45.55
29371;BME280;16357;52.188;7.838;2023-05-10T13:25:28;100368.16;;;22.97;45.17
29371;BME280;16357;52.188;7.838;2023-05-10T13:27:56;100382.56;;;22.93;46.16
29371;BME280;16357;52.188;7.838;2023-05-10T13:30:22;100373.78;;;22.91;45.79
29371;BME280;16357;52.188;7.838;2023-05-10T13:32:49;100370.78;;;22.92;46.04
29371;BME280;16357;52.188;7.838;2023-05-10T13:35:16;100374.47;;;22.98;46.21
29371;BME280;16357;52.188;7.838;2023-05-10T13:37:42;100385.00;;;23.06;46.46
29371;BME280;16357;52.188;7.838;2023-05-10T13:40:10;100375.31;;;23.15;46.12
29371;BME280;16357;52.188;7.838;2023-05-10T13:42:36;100373.56;;;23.26;45.61
29371;BME280;16357;52.188;7.838;2023-05-10T13:45:04;100370.41;;;23.34;45.38
29371;BME280;16357;52.188;7.838;2023-05-10T13:47:30;100375.47;;;23.42;44.72
29371;BME280;16357;52.188;7.838;2023-05-10T13:49:57;100364.84;;;23.46;45.27
29371;BME280;16357;52.188;7.838;2023-05-10T13:52:23;100373.13;;;23.51;44.95